createdAt,value
2022-12-26T00:02:41.401Z,71.04421
2022-12-26T00:07:43.048Z,68.87919
2022-12-26T00:12:44.876Z,68.91704
2022-12-26T00:17:46.591Z,69.6418
2022-12-26T00:22:48.457Z,68.88954
2022-12-26T00:27:50.138Z,68.44355
2022-12-26T00:32:52.040Z,70.70908
2022-12-26T00:37:53.923Z,72.99761
2022-12-26T00:42:55.582Z,71.92379
2022-12-26T00:47:57.267Z,68.684
2022-12-26T00:52:59.061Z,68.63038
2022-12-26T00:58:00.721Z,68.17063
2022-12-26T01:03:02.534Z,67.27948
2022-12-26T01:08:22.509Z,67.63886
2022-12-26T01:13:26.111Z,69.73348
2022-12-26T01:18:27.869Z,71.9596
2022-12-26T01:23:29.585Z,70.10866
2022-12-26T01:28:31.265Z,67.59796
2022-12-26T01:33:32.909Z,65.82592
2022-12-26T01:38:34.778Z,66.96424
2022-12-26T01:43:36.664Z,68.64387
2022-12-26T01:48:38.462Z,69.78322
2022-12-26T01:53:40.183Z,68.09981
2022-12-26T01:58:42.663Z,70.221
2022-12-26T02:03:44.342Z,71.21491
2022-12-26T02:08:46.052Z,70.32515
2022-12-26T02:13:47.778Z,69.29293
2022-12-26T02:18:49.366Z,68.18455
2022-12-26T02:23:51.030Z,69.87495
2022-12-26T02:28:52.661Z,69.72039
2022-12-26T02:33:54.277Z,71.46445
2022-12-26T02:38:55.910Z,67.87613
2022-12-26T02:48:58.136Z,68.03231
2022-12-26T02:53:59.869Z,69.30966
2022-12-26T02:59:01.551Z,68.58642
2022-12-26T03:04:03.325Z,68.97544
2022-12-26T03:09:05.056Z,70.51005
2022-12-26T03:14:06.769Z,69.92655
2022-12-26T03:19:08.411Z,69.91539
2022-12-26T03:24:10.075Z,71.7136
2022-12-26T03:29:17.127Z,73.97482
2022-12-26T03:34:20.620Z,74.62045
2022-12-26T03:39:22.210Z,73.17986
2022-12-26T03:44:23.841Z,72.34767
2022-12-26T03:49:25.498Z,70.68635
2022-12-26T03:54:27.161Z,73.1
2022-12-26T03:59:28.858Z,72.14111
2022-12-26T04:04:30.561Z,69.99671
2022-12-26T04:09:33.356Z,67.48819
2022-12-26T04:14:35.026Z,69.14978
2022-12-26T04:19:36.691Z,69.0281
2022-12-26T04:24:38.344Z,70.06666
2022-12-26T04:29:40.069Z,74.68836
2022-12-26T04:34:41.691Z,72.76486
2022-12-26T04:39:43.391Z,74.18671
2022-12-26T04:44:45.125Z,74.90928
2022-12-26T04:49:46.779Z,71.75215
2022-12-26T04:54:48.957Z,74.6777
2022-12-26T04:59:51.758Z,72.58904
2022-12-26T05:04:53.406Z,74.78672
2022-12-26T05:09:55.008Z,73.04953
2022-12-26T05:14:56.643Z,68.604
2022-12-26T05:19:58.297Z,70.49245
2022-12-26T05:25:00.098Z,71.76066
2022-12-26T05:30:02.055Z,75.50315
2022-12-26T05:35:03.855Z,74.99598
2022-12-26T05:40:05.621Z,71.74507
2022-12-26T05:45:07.243Z,72.015
2022-12-26T05:50:08.889Z,73.57762
2022-12-26T05:55:10.654Z,72.07509
2022-12-26T06:00:12.429Z,75.35194
2022-12-26T06:05:14.138Z,78.7665
2022-12-26T06:10:15.833Z,81.57124
2022-12-26T06:15:17.537Z,77.33358
2022-12-26T06:20:19.141Z,78.21381
2022-12-26T06:25:20.868Z,78.5707
2022-12-26T06:30:22.794Z,78.07169
2022-12-26T06:35:24.425Z,74.53238
2022-12-26T06:40:26.076Z,72.24473
2022-12-26T06:45:27.675Z,72.56198
2022-12-26T06:50:29.342Z,72.31772
2022-12-26T06:55:31.019Z,71.47834
2022-12-26T07:00:32.852Z,73.37998
2022-12-26T07:05:34.603Z,74.17422
2022-12-26T07:10:36.268Z,81.52924
2022-12-26T07:15:37.988Z,80.64921
2022-12-26T07:20:39.704Z,78.20277
2022-12-26T07:25:41.356Z,75.15074
2022-12-26T07:30:43.012Z,77.36775
2022-12-26T07:35:44.727Z,74.45935
2022-12-26T07:40:46.374Z,80.89364
2022-12-26T07:45:48.176Z,78.79553
2022-12-26T07:50:49.895Z,77.23342
2022-12-26T07:55:51.573Z,74.88831
2022-12-26T08:00:53.324Z,74.97809
2022-12-26T08:05:55.086Z,76.7995
2022-12-26T08:10:56.750Z,76.27787
2022-12-26T08:15:58.442Z,72.93882
2022-12-26T08:21:00.121Z,76.79388
2022-12-26T08:26:03.343Z,81.71262
2022-12-26T08:31:04.972Z,77.25354
2022-12-26T08:36:06.821Z,75.78967
2022-12-26T08:41:08.469Z,82.15155
2022-12-26T08:46:10.253Z,81.60383
2022-12-26T08:51:11.896Z,85.15064
2022-12-26T08:56:13.553Z,82.09992
2022-12-26T09:01:15.362Z,77.20429
2022-12-26T09:06:17.059Z,78.00119
2022-12-26T09:11:18.675Z,77.85996
2022-12-26T09:16:20.357Z,74.32464
2022-12-26T09:21:22.057Z,77.64339
2022-12-26T09:26:23.718Z,78.77468
2022-12-26T09:31:25.425Z,81.42344
2022-12-26T09:36:27.139Z,78.98467
2022-12-26T09:41:28.766Z,77.98496
2022-12-26T09:46:30.515Z,76.69015
2022-12-26T09:51:32.205Z,76.25974
2022-12-26T09:57:01.706Z,76.15029
2022-12-26T10:02:04.747Z,76.39154
2022-12-26T10:07:06.591Z,80.58134
2022-12-26T10:12:08.247Z,82.52976
2022-12-26T10:17:09.908Z,77.20623
2022-12-26T10:22:11.815Z,78.537
2022-12-26T10:27:13.502Z,77.19261
2022-12-26T10:32:15.214Z,73.16743
2022-12-26T10:37:16.919Z,75.10457
2022-12-26T10:42:18.671Z,77.3475
2022-12-26T10:47:20.580Z,76.94828
2022-12-26T10:52:22.211Z,76.77632
2022-12-26T10:57:23.830Z,76.36175
2022-12-26T11:02:25.734Z,75.01233
2022-12-26T11:07:27.413Z,73.14455
2022-12-26T11:12:29.076Z,78.62836
2022-12-26T11:17:30.858Z,75.52174
2022-12-26T11:22:32.470Z,78.48918
2022-12-26T11:27:34.099Z,79.80849
2022-12-26T11:32:35.755Z,81.69828
2022-12-26T11:37:37.364Z,83.00276
2022-12-26T11:42:38.987Z,78.87095
2022-12-26T11:47:40.621Z,75.93698
2022-12-26T11:52:42.249Z,76.8285
2022-12-26T11:57:44.086Z,81.14854
2022-12-26T12:02:47.430Z,76.0341
2022-12-26T12:07:49.167Z,76.59584
2022-12-26T12:12:50.802Z,81.11711
2022-12-26T12:17:52.468Z,76.80866
2022-12-26T12:22:54.171Z,74.8262
2022-12-26T12:27:55.842Z,80.4539
2022-12-26T12:32:57.551Z,77.75095
2022-12-26T12:37:59.245Z,74.53014
2022-12-26T12:43:00.998Z,76.52121
2022-12-26T12:48:02.923Z,77.77306
2022-12-26T12:53:04.757Z,74.15838
2022-12-26T12:58:06.455Z,73.97751
2022-12-26T13:03:08.053Z,73.71753
2022-12-26T13:08:09.719Z,75.73055
2022-12-26T13:13:11.417Z,84.52496
2022-12-26T13:18:13.361Z,86.27351
2022-12-26T13:23:15.186Z,80.4324
2022-12-26T13:28:16.846Z,78.8242
2022-12-26T13:33:18.469Z,77.63466
2022-12-26T13:38:20.090Z,78.76268
2022-12-26T13:43:21.734Z,79.51663
2022-12-26T13:48:23.427Z,79.54747
2022-12-26T13:53:25.092Z,78.82003
2022-12-26T13:58:26.757Z,77.89941
2022-12-26T14:03:28.557Z,76.22818
2022-12-26T14:08:30.490Z,78.15642
2022-12-26T14:13:32.118Z,76.71989
2022-12-26T14:18:34.150Z,77.82587
2022-12-26T14:23:35.744Z,79.06699
2022-12-26T14:28:37.330Z,78.81377
2022-12-26T14:33:38.948Z,82.42776
2022-12-26T14:38:40.598Z,84.40858
2022-12-26T14:43:43.603Z,79.51793
2022-12-26T14:48:45.267Z,78.80899
2022-12-26T14:53:46.972Z,80.93299
2022-12-26T14:58:49.983Z,77.69359
2022-12-26T15:03:51.655Z,80.0789
2022-12-26T15:08:53.307Z,78.39416
2022-12-26T15:13:55.021Z,77.60993
2022-12-26T15:18:56.708Z,76.9659
2022-12-26T15:23:58.442Z,75.51761
2022-12-26T15:29:00.141Z,75.52112
2022-12-26T15:34:01.746Z,77.75219
2022-12-26T15:39:03.378Z,78.6329
2022-12-26T15:44:05.022Z,80.6547
2022-12-26T15:49:06.631Z,85.42431
2022-12-26T15:54:08.304Z,81.26881
2022-12-26T15:59:09.963Z,79.61492
2022-12-26T16:04:11.566Z,84.02668
2022-12-26T16:09:13.198Z,81.43852
2022-12-26T16:14:14.866Z,77.66635
2022-12-26T16:19:16.499Z,75.49855
2022-12-26T16:24:18.179Z,80.80367
2022-12-26T16:29:20.058Z,80.73428
2022-12-26T16:34:21.748Z,81.38053
2022-12-26T16:39:23.424Z,81.87437
2022-12-26T16:44:29.991Z,81.74578
2022-12-26T16:49:32.616Z,85.45818
2022-12-26T16:54:34.294Z,78.48468
2022-12-26T16:59:36.003Z,79.41379
2022-12-26T17:04:37.759Z,80.14242
2022-12-26T17:09:39.415Z,80.81187
2022-12-26T17:14:41.040Z,81.19795
2022-12-26T17:19:42.752Z,83.86941
2022-12-26T17:24:44.412Z,82.71523
2022-12-26T17:29:46.058Z,79.64307
2022-12-26T17:34:47.740Z,76.51807
2022-12-26T17:39:49.393Z,75.75282
2022-12-26T17:44:51.064Z,76.04674
2022-12-26T17:49:52.757Z,76.74127
2022-12-26T17:54:54.452Z,77.64815
2022-12-26T17:59:56.099Z,76.63572
2022-12-26T18:04:57.711Z,75.10426
2022-12-26T18:09:59.566Z,80.76319
2022-12-26T18:15:02.323Z,82.50439
2022-12-26T18:20:04.300Z,79.38848
2022-12-26T18:25:06.166Z,81.39795
2022-12-26T18:30:07.850Z,77.18159
2022-12-26T18:35:09.472Z,75.33172
2022-12-26T18:40:11.127Z,76.3027
2022-12-26T18:45:12.754Z,75.7013
2022-12-26T18:50:14.422Z,76.91756
2022-12-26T18:55:16.078Z,79.69715
2022-12-26T19:00:17.722Z,81.08515
2022-12-26T19:05:19.561Z,78.84683
2022-12-26T19:10:21.212Z,75.22114
2022-12-26T19:15:23.109Z,73.50117
2022-12-26T19:20:24.764Z,74.58778
2022-12-26T19:25:26.417Z,74.96466
2022-12-26T19:30:28.951Z,75.16989
2022-12-26T19:35:32.905Z,77.1074
2022-12-26T19:40:34.593Z,79.11899
2022-12-26T19:45:36.249Z,81.06114
2022-12-26T19:50:37.976Z,83.01078
2022-12-26T19:55:39.656Z,84.28905
2022-12-26T20:00:41.311Z,80.91662
2022-12-26T20:05:43.083Z,80.17263
2022-12-26T20:10:44.741Z,75.67107
2022-12-26T20:15:46.388Z,77.40699
2022-12-26T20:20:48.045Z,79.7647
2022-12-26T20:25:49.721Z,82.46661
2022-12-26T20:30:51.555Z,85.25207
2022-12-26T20:35:53.478Z,89.3936
2022-12-26T20:40:55.119Z,87.287
2022-12-26T20:45:56.753Z,83.8085
2022-12-26T20:50:58.441Z,80.19841
2022-12-26T20:56:00.335Z,78.59931
2022-12-26T21:01:02.138Z,78.93643
2022-12-26T21:06:03.935Z,77.31728
2022-12-26T21:11:05.737Z,76.59025
2022-12-26T21:16:09.941Z,76.07723
2022-12-26T21:21:11.944Z,74.50572
2022-12-26T21:26:13.831Z,75.71129
2022-12-26T21:31:15.530Z,77.65707
2022-12-26T21:36:17.295Z,77.31106
2022-12-26T21:41:19.067Z,77.97563
2022-12-26T21:46:20.805Z,77.65342
2022-12-26T21:51:22.489Z,78.16594
2022-12-26T21:56:24.569Z,78.68964
2022-12-26T22:01:26.435Z,79.70775
2022-12-26T22:06:28.147Z,81.38134
2022-12-26T22:11:29.799Z,79.40238
2022-12-26T22:16:31.457Z,77.3676
2022-12-26T22:21:33.065Z,76.61497
2022-12-26T22:26:34.715Z,76.40955
2022-12-26T22:31:36.455Z,77.65463
2022-12-26T22:36:38.165Z,76.70473
2022-12-26T22:41:39.890Z,76.51059
2022-12-26T22:46:41.630Z,76.14553
2022-12-26T22:51:43.509Z,75.86332
2022-12-26T22:56:45.133Z,78.10611
2022-12-26T23:01:46.876Z,78.97934
2022-12-26T23:06:48.610Z,76.59787
2022-12-26T23:11:50.286Z,77.55974
2022-12-26T23:16:51.969Z,77.66612
2022-12-26T23:21:53.589Z,76.27914
2022-12-26T23:26:55.232Z,75.03552
2022-12-26T23:31:56.870Z,76.09984
2022-12-26T23:36:58.498Z,77.38811
2022-12-26T23:42:00.132Z,77.30273
2022-12-26T23:47:01.808Z,77.06857
2022-12-26T23:52:03.544Z,77.85756
2022-12-26T23:57:05.404Z,75.81198
